Time;durP1;ratioP1;P1;durP2;ratioP2;P2;SDS_P1;SDS_P2;PMS_P1;PMS_P2;Temp;Humidity;BMP_temperature;BMP_pressure;BME280_temperature;BME280_humidity;BME280_pressure;Samples;Min_cycle;Max_cycle;Signal;HPM_P1;HPM_P2
2023/01/27 00:01:16;;;;;;;2.57;1.20;;;14.40;60.40;;;;;;5115147;27;20267;-45
2023/01/27 00:03:46;;;;;;;2.60;1.00;;;14.40;60.40;;;;;;5090158;28;20212;-45
2023/01/27 00:06:20;;;;;;;4.83;1.30;;;14.30;60.40;;;;;;5105109;28;20228;-45
2023/01/27 00:08:50;;;;;;;2.27;1.50;;;14.40;60.50;;;;;;5109068;27;20241;-45
2023/01/27 00:14:09;;;;;;;3.37;1.50;;;14.40;60.50;;;;;;5108248;28;20198;-45
2023/01/27 00:16:39;;;;;;;3.17;1.30;;;14.40;60.50;;;;;;5102623;28;20204;-45
2023/01/27 00:19:08;;;;;;;1.80;0.90;;;14.40;60.50;;;;;;5114940;27;20573;-45
2023/01/27 00:24:41;;;;;;;3.23;0.97;;;14.40;60.50;;;;;;5060017;28;20273;-45
2023/01/27 00:27:11;;;;;;;2.07;0.97;;;14.40;60.50;;;;;;5104813;27;20251;-45
2023/01/27 00:29:43;;;;;;;3.47;1.30;;;14.40;60.60;;;;;;5094453;28;20200;-46
2023/01/27 00:35:04;;;;;;;3.27;0.90;;;14.30;60.50;;;;;;5096945;28;20200;-45
2023/01/27 00:37:36;;;;;;;4.03;0.87;;;14.30;60.50;;;;;;5111411;27;20606;-45
2023/01/27 00:40:06;;;;;;;2.33;1.17;;;14.30;60.60;;;;;;5106512;28;20203;-45
2023/01/27 00:42:38;;;;;;;2.13;0.90;;;14.40;60.60;;;;;;5118413;28;20189;-45
2023/01/27 00:47:54;;;;;;;3.07;1.30;;;14.40;60.60;;;;;;5092844;28;20617;-45
2023/01/27 00:50:24;;;;;;;1.63;0.80;;;14.40;60.60;;;;;;5103591;28;20540;-45
2023/01/27 00:52:52;;;;;;;3.87;1.13;;;14.40;60.60;;;;;;5104160;28;20273;-45
2023/01/27 00:55:21;;;;;;;2.00;1.00;;;14.30;60.50;;;;;;5112154;27;20227;-45
2023/01/27 00:57:49;;;;;;;1.83;1.40;;;14.40;60.70;;;;;;5095953;28;20204;-45
2023/01/27 01:00:17;;;;;;;2.13;0.93;;;14.40;60.60;;;;;;5095881;28;20181;-45
2023/01/27 01:02:48;;;;;;;2.23;0.87;;;14.40;60.60;;;;;;5109713;28;20212;-46
2023/01/27 01:05:17;;;;;;;2.33;1.00;;;14.40;61.20;;;;;;5115917;27;20199;-45
2023/01/27 01:07:50;;;;;;;3.63;1.20;;;14.40;60.70;;;;;;5118740;27;20300;-45
2023/01/27 01:10:20;;;;;;;3.03;0.93;;;14.40;60.60;;;;;;5108485;28;20202;-45
2023/01/27 01:12:50;;;;;;;2.90;1.07;;;14.30;60.60;;;;;;5112177;28;20192;-44
2023/01/27 01:15:21;;;;;;;2.27;0.97;;;14.40;60.70;;;;;;5109610;27;20211;-45
2023/01/27 01:17:54;;;;;;;3.10;1.37;;;14.30;60.60;;;;;;5111356;28;20230;-45
2023/01/27 01:20:24;;;;;;;3.67;1.30;;;14.40;60.80;;;;;;5108492;27;20188;-45
2023/01/27 01:22:53;;;;;;;1.97;1.30;;;14.30;60.70;;;;;;5111909;28;20819;-45
2023/01/27 01:25:25;;;;;;;2.00;1.00;;;14.40;60.80;;;;;;5097768;27;20208;-45
2023/01/27 01:27:56;;;;;;;2.97;1.27;;;14.40;60.80;;;;;;5105576;28;20293;-45
2023/01/27 01:30:28;;;;;;;2.77;1.30;;;14.40;60.80;;;;;;5108522;28;20225;-45
2023/01/27 01:32:58;;;;;;;1.83;0.80;;;14.40;60.80;;;;;;5110727;28;20204;-45
2023/01/27 01:35:29;;;;;;;2.37;1.60;;;14.40;60.80;;;;;;5098985;27;20845;-45
2023/01/27 01:37:58;;;;;;;2.80;1.43;;;14.30;60.80;;;;;;5095074;28;20680;-45
2023/01/27 01:40:28;;;;;;;1.40;1.00;;;14.30;60.80;;;;;;5105798;28;20212;-45
2023/01/27 01:43:05;;;;;;;1.40;0.73;;;14.30;60.80;;;;;;5111405;28;20192;-45
2023/01/27 01:45:44;;;;;;;2.43;1.07;;;14.30;60.70;;;;;;5110613;28;20196;-45
2023/01/27 01:48:20;;;;;;;2.63;1.40;;;14.30;60.70;;;;;;5109387;28;20212;-45
2023/01/27 01:51:04;;;;;;;4.03;0.93;;;14.30;60.60;;;;;;5111713;27;20594;-45
2023/01/27 01:53:40;;;;;;;2.13;1.00;;;14.40;60.70;;;;;;5094405;28;20281;-45
2023/01/27 01:56:16;;;;;;;2.87;1.03;;;14.30;60.70;;;;;;5093105;28;20665;-45
2023/01/27 01:58:49;;;;;;;3.57;1.47;;;14.30;60.70;;;;;;5091682;28;20196;-45
2023/01/27 02:01:28;;;;;;;2.70;0.87;;;14.30;60.60;;;;;;5121803;27;20206;-45
2023/01/27 02:03:59;;;;;;;2.93;1.30;;;14.30;60.60;;;;;;5107126;28;20261;-45
2023/01/27 02:06:27;;;;;;;3.67;1.20;;;14.30;60.70;;;;;;5093470;28;20212;-45
2023/01/27 02:08:55;;;;;;;2.47;1.30;;;14.30;60.70;;;;;;5092443;28;20184;-45
2023/01/27 02:11:27;;;;;;;3.07;1.27;;;14.30;60.70;;;;;;5118588;27;20562;-45
2023/01/27 02:14:01;;;;;;;2.80;1.30;;;14.30;60.70;;;;;;5098693;27;20221;-45
2023/01/27 02:16:32;;;;;;;2.97;1.40;;;14.30;60.80;;;;;;5090481;28;20205;-44
2023/01/27 02:19:12;;;;;;;2.77;1.20;;;14.30;60.70;;;;;;5097080;27;20180;-45
2023/01/27 02:21:40;;;;;;;3.47;1.33;;;14.30;60.80;;;;;;5093316;28;20684;-45
2023/01/27 02:24:11;;;;;;;3.70;1.30;;;14.30;60.60;;;;;;5110363;27;20254;-45
2023/01/27 02:26:45;;;;;;;3.73;1.30;;;14.30;60.50;;;;;;5107575;28;20200;-44
2023/01/27 02:29:16;;;;;;;2.60;1.30;;;14.30;60.50;;;;;;5110315;28;20196;-45
2023/01/27 02:31:46;;;;;;;2.83;1.10;;;14.30;60.60;;;;;;5111719;27;20189;-45
2023/01/27 02:34:22;;;;;;;3.27;1.50;;;14.30;60.60;;;;;;5111743;27;20265;-45
2023/01/27 02:37:06;;;;;;;2.80;1.30;;;14.30;60.50;;;;;;5092631;28;20202;-45
2023/01/27 02:39:41;;;;;;;2.97;1.33;;;14.30;60.60;;;;;;5081113;28;20208;-45
2023/01/27 02:42:13;;;;;;;1.67;0.80;;;14.30;60.60;;;;;;5102880;27;20192;-45
2023/01/27 02:44:40;;;;;;;2.93;1.50;;;14.30;60.60;;;;;;5117699;27;20192;-45
2023/01/27 02:47:09;;;;;;;3.40;1.87;;;14.30;60.60;;;;;;5109857;28;20243;-45
2023/01/27 02:49:41;;;;;;;2.20;1.00;;;14.30;60.70;;;;;;5097773;28;20200;-45
2023/01/27 02:52:08;;;;;;;2.93;1.47;;;14.30;60.70;;;;;;5107578;28;20297;-45
2023/01/27 02:54:35;;;;;;;2.60;1.23;;;14.30;60.80;;;;;;5097672;27;20200;-44
2023/01/27 02:57:11;;;;;;;2.23;1.03;;;14.30;60.70;;;;;;5111605;27;20195;-45
2023/01/27 02:59:41;;;;;;;3.63;1.23;;;14.30;60.80;;;;;;5109301;27;20524;-45
2023/01/27 03:02:13;;;;;;;3.03;1.13;;;14.30;60.80;;;;;;5108440;28;20224;-45
2023/01/27 03:04:46;;;;;;;2.47;1.50;;;14.30;60.70;;;;;;5113672;27;20205;-45
2023/01/27 03:07:17;;;;;;;1.90;1.23;;;14.30;60.80;;;;;;5109064;28;20205;-45
2023/01/27 03:09:48;;;;;;;2.60;1.30;;;14.20;60.60;;;;;;5105487;28;20185;-44
2023/01/27 03:12:21;;;;;;;3.17;2.07;;;14.20;60.50;;;;;;5103294;28;20236;-45
2023/01/27 03:20:41;;;;;;;2.63;1.60;;;14.20;60.70;;;;;;5111942;27;20203;-44
2023/01/27 03:23:13;;;;;;;1.63;1.10;;;14.20;60.70;;;;;;5118882;27;20203;-46
2023/01/27 03:25:47;;;;;;;3.83;1.43;;;14.20;60.70;;;;;;5092393;28;20576;-47
2023/01/27 03:28:16;;;;;;;5.27;1.70;;;14.20;60.80;;;;;;5090837;28;20258;-45
2023/01/27 03:30:45;;;;;;;2.87;1.87;;;14.20;60.70;;;;;;5091543;28;20193;-45
2023/01/27 03:33:18;;;;;;;3.20;1.77;;;14.20;60.70;;;;;;5112637;27;20184;-45
2023/01/27 03:35:48;;;;;;;4.70;2.00;;;14.20;60.70;;;;;;5111170;27;20655;-45
2023/01/27 03:46:44;;;;;;;2.60;1.60;;;14.20;60.80;;;;;;5123457;27;20543;-46
2023/01/27 03:49:15;;;;;;;3.20;1.70;;;14.20;60.90;;;;;;5118491;27;20200;-45
2023/01/27 03:51:46;;;;;;;3.20;1.93;;;14.20;60.80;;;;;;5091225;28;20346;-45
2023/01/27 03:54:15;;;;;;;2.20;1.70;;;14.20;60.80;;;;;;5107235;28;20196;-45
2023/01/27 03:56:47;;;;;;;2.60;1.80;;;14.20;60.90;;;;;;5109166;28;20189;-45
2023/01/27 03:59:15;;;;;;;2.93;2.03;;;14.20;60.80;;;;;;5112228;27;20237;-45
2023/01/27 04:01:47;;;;;;;3.37;1.83;;;14.20;60.80;;;;;;5112218;27;20196;-45
2023/01/27 04:07:11;;;;;;;2.63;1.83;;;14.20;60.80;;;;;;5108958;28;20742;-45
2023/01/27 04:09:41;;;;;;;3.30;1.90;;;14.20;60.70;;;;;;5109170;27;20204;-45
2023/01/27 04:12:11;;;;;;;3.80;2.17;;;14.20;60.80;;;;;;5108633;28;20181;-45
2023/01/27 04:14:40;;;;;;;3.03;1.90;;;14.20;60.70;;;;;;5105732;28;20207;-45
2023/01/27 04:17:14;;;;;;;2.90;2.10;;;14.20;60.70;;;;;;5111100;27;20196;-45
2023/01/27 04:19:45;;;;;;;5.13;3.10;;;14.20;60.60;;;;;;5109017;28;20200;-45
2023/01/27 04:22:19;;;;;;;3.57;2.40;;;14.20;60.70;;;;;;5088121;28;20200;-44
2023/01/27 04:24:49;;;;;;;2.17;1.70;;;14.20;60.70;;;;;;5117543;27;20196;-45
2023/01/27 04:27:26;;;;;;;3.27;2.20;;;14.10;60.80;;;;;;5103996;28;20231;-45
2023/01/27 04:29:57;;;;;;;5.83;2.47;;;14.20;60.80;;;;;;5108887;27;20202;-45
2023/01/27 04:32:40;;;;;;;4.50;2.33;;;14.20;60.70;;;;;;5113654;27;20747;-45
2023/01/27 04:35:16;;;;;;;2.80;2.23;;;14.20;60.70;;;;;;5114978;27;20196;-45
2023/01/27 04:37:51;;;;;;;2.90;2.20;;;14.20;60.80;;;;;;5108659;28;20585;-45
2023/01/27 04:40:19;;;;;;;3.93;2.97;;;14.20;60.80;;;;;;5092013;28;20770;-45
2023/01/27 04:42:53;;;;;;;4.63;2.13;;;14.20;60.80;;;;;;5103045;28;20196;-45
2023/01/27 04:45:23;;;;;;;4.33;2.43;;;14.20;60.90;;;;;;5079373;28;20272;-45
2023/01/27 04:47:52;;;;;;;3.00;2.47;;;14.10;60.80;;;;;;5112228;28;20281;-45
2023/01/27 04:50:24;;;;;;;3.97;2.23;;;14.20;60.90;;;;;;5103834;28;20200;-45
2023/01/27 04:52:52;;;;;;;3.90;2.63;;;14.20;60.90;;;;;;5113184;28;20599;-45
2023/01/27 04:55:26;;;;;;;2.10;1.87;;;14.20;60.90;;;;;;5109067;28;20208;-46
2023/01/27 04:57:55;;;;;;;2.70;2.40;;;14.10;60.90;;;;;;5090248;28;20207;-45
2023/01/27 05:00:36;;;;;;;3.53;2.30;;;14.10;60.90;;;;;;5105805;28;20192;-45
2023/01/27 05:03:04;;;;;;;2.67;2.10;;;14.20;61.10;;;;;;5100956;28;20211;-45
2023/01/27 05:05:37;;;;;;;3.67;1.97;;;14.10;61.00;;;;;;5109264;28;20237;-45
2023/01/27 05:08:09;;;;;;;2.40;1.87;;;14.20;61.10;;;;;;5091218;28;20235;-45
2023/01/27 05:10:38;;;;;;;2.40;2.13;;;14.10;61.00;;;;;;5110631;28;20551;-45
2023/01/27 05:13:08;;;;;;;2.40;1.80;;;14.10;61.00;;;;;;5109588;28;20684;-45
2023/01/27 05:15:38;;;;;;;3.67;1.97;;;14.10;61.00;;;;;;5106762;28;20204;-45
2023/01/27 05:18:09;;;;;;;3.23;1.73;;;14.10;61.00;;;;;;5090847;28;20220;-45
2023/01/27 05:20:37;;;;;;;2.73;2.20;;;14.10;61.00;;;;;;5105506;28;20231;-45
2023/01/27 05:25:54;;;;;;;2.47;2.07;;;14.10;61.00;;;;;;5112301;28;20610;-45
2023/01/27 05:28:25;;;;;;;3.87;1.90;;;14.10;61.00;;;;;;5102679;28;20271;-45
2023/01/27 05:31:07;;;;;;;3.43;2.20;;;14.10;61.00;;;;;;5111824;28;20195;-45
2023/01/27 05:33:39;;;;;;;2.70;1.80;;;14.10;61.10;;;;;;5108491;28;20192;-45
2023/01/27 05:36:13;;;;;;;2.60;1.97;;;14.10;61.70;;;;;;5098294;28;20197;-45
2023/01/27 05:38:44;;;;;;;2.00;1.80;;;14.10;61.10;;;;;;5089611;28;20209;-45
2023/01/27 05:41:20;;;;;;;2.37;1.63;;;14.10;61.10;;;;;;5111486;27;20663;-45
2023/01/27 05:44:03;;;;;;;2.40;2.10;;;14.10;61.00;;;;;;5111727;28;20285;-45
2023/01/27 05:46:32;;;;;;;1.80;1.70;;;14.10;61.00;;;;;;5100232;28;20676;-45
2023/01/27 05:49:04;;;;;;;2.93;2.60;;;14.10;61.00;;;;;;5099582;28;20220;-45
2023/01/27 05:51:54;;;;;;;2.40;1.90;;;14.10;61.00;;;;;;5079626;28;20209;-45
2023/01/27 05:54:31;;;;;;;3.80;1.90;;;14.10;60.90;;;;;;5109828;28;20231;-45
2023/01/27 05:57:01;;;;;;;3.33;2.03;;;14.10;61.00;;;;;;5118098;27;20204;-45
2023/01/27 05:59:33;;;;;;;2.80;2.23;;;14.10;60.90;;;;;;5111823;27;20207;-45
2023/01/27 06:02:03;;;;;;;2.33;2.13;;;14.10;60.90;;;;;;5126925;27;20203;-45
2023/01/27 06:04:33;;;;;;;3.33;2.33;;;14.10;60.80;;;;;;5107547;28;20751;-45
2023/01/27 06:07:05;;;;;;;3.37;2.23;;;14.10;60.80;;;;;;5112486;27;20224;-45
2023/01/27 06:09:34;;;;;;;2.27;2.07;;;14.10;60.80;;;;;;5112816;27;20216;-45
2023/01/27 06:12:03;;;;;;;2.67;2.27;;;14.00;60.80;;;;;;5110893;27;20305;-45
2023/01/27 06:14:38;;;;;;;4.70;2.03;;;14.10;60.90;;;;;;5108502;27;20408;-45
2023/01/27 06:17:09;;;;;;;2.57;2.17;;;14.10;60.80;;;;;;5117710;27;20231;-45
2023/01/27 06:19:39;;;;;;;2.93;1.97;;;14.10;60.80;;;;;;5112127;27;20203;-45
2023/01/27 06:22:08;;;;;;;2.53;1.80;;;14.10;60.80;;;;;;5105704;27;20209;-45
2023/01/27 06:24:37;;;;;;;3.23;2.57;;;14.10;60.80;;;;;;5087061;28;20206;-44
2023/01/27 06:27:05;;;;;;;3.20;2.07;;;14.10;60.80;;;;;;5107953;27;20211;-46
2023/01/27 06:29:36;;;;;;;2.20;2.00;;;14.10;60.90;;;;;;5115637;27;20634;-45
2023/01/27 06:32:07;;;;;;;2.87;2.10;;;14.10;60.90;;;;;;5098719;27;20196;-45
2023/01/27 06:34:37;;;;;;;2.33;1.90;;;14.10;61.00;;;;;;5117606;27;20188;-45
2023/01/27 06:37:09;;;;;;;2.80;2.27;;;14.10;61.00;;;;;;5111970;28;20680;-45
2023/01/27 06:39:41;;;;;;;2.20;2.00;;;14.10;61.10;;;;;;5106656;28;20583;-45
2023/01/27 06:42:08;;;;;;;2.27;2.07;;;14.10;61.20;;;;;;5110331;28;20189;-46
2023/01/27 06:44:37;;;;;;;2.80;2.50;;;14.10;61.30;;;;;;5113033;27;20177;-45
2023/01/27 06:47:06;;;;;;;3.53;2.50;;;14.10;61.40;;;;;;5110057;27;20216;-45
2023/01/27 06:49:34;;;;;;;3.27;2.47;;;14.10;61.60;;;;;;5109837;28;20634;-45
2023/01/27 06:52:01;;;;;;;4.97;2.30;;;14.10;61.60;;;;;;5102479;28;20200;-45
2023/01/27 06:54:29;;;;;;;6.93;2.97;;;14.10;61.80;;;;;;5100684;27;20540;-45
2023/01/27 06:56:58;;;;;;;3.50;2.40;;;14.10;61.80;;;;;;5112323;27;20246;-45
2023/01/27 06:59:32;;;;;;;4.33;2.87;;;14.10;61.80;;;;;;5109669;28;20258;-45
2023/01/27 07:02:03;;;;;;;6.53;2.00;;;14.10;62.20;;;;;;5109763;28;20180;-45
2023/01/27 07:04:31;;;;;;;4.70;2.83;;;14.10;62.10;;;;;;5104775;28;20234;-45
2023/01/27 07:07:02;;;;;;;5.50;2.33;;;14.10;62.00;;;;;;5111432;27;20196;-45
2023/01/27 07:09:31;;;;;;;3.13;2.60;;;14.10;61.90;;;;;;5105104;28;20231;-44
2023/01/27 07:12:19;;;;;;;2.93;2.40;;;14.20;62.00;;;;;;5107068;27;20211;-45
2023/01/27 07:14:47;;;;;;;3.70;2.50;;;14.20;61.80;;;;;;5095327;27;20293;-45
2023/01/27 07:17:17;;;;;;;2.83;1.77;;;14.20;61.80;;;;;;5091297;28;20189;-45
2023/01/27 07:19:50;;;;;;;4.10;2.30;;;14.20;61.70;;;;;;5110319;27;20207;-45
2023/01/27 07:22:22;;;;;;;5.60;2.23;;;14.20;61.80;;;;;;5111841;27;20666;-46
2023/01/27 07:24:53;;;;;;;6.70;2.43;;;14.20;61.90;;;;;;5102854;28;20219;-45
2023/01/27 07:27:21;;;;;;;4.83;2.43;;;14.20;61.80;;;;;;5091290;27;20902;-45
2023/01/27 07:29:52;;;;;;;5.67;2.47;;;14.20;61.90;;;;;;5091708;27;20212;-45
2023/01/27 07:32:21;;;;;;;4.57;2.20;;;14.20;62.00;;;;;;5090196;28;20192;-45
2023/01/27 07:34:49;;;;;;;7.50;2.80;;;14.20;62.00;;;;;;5108185;28;20201;-45
2023/01/27 07:37:20;;;;;;;161.70;28.73;;;14.30;62.10;;;;;;5083855;27;20200;-45
2023/01/27 07:39:50;;;;;;;118.40;25.27;;;14.30;62.80;;;;;;5099746;28;20200;-45
2023/01/27 07:42:22;;;;;;;99.87;23.20;;;14.30;63.40;;;;;;5106036;27;20208;-45
2023/01/27 07:44:50;;;;;;;102.03;26.40;;;14.30;63.60;;;;;;5109913;27;20228;-45
2023/01/27 07:47:23;;;;;;;103.37;25.30;;;14.40;64.20;;;;;;5110057;27;20832;-45
2023/01/27 07:49:55;;;;;;;97.40;23.90;;;14.50;64.10;;;;;;5108002;28;20625;-45
2023/01/27 07:52:25;;;;;;;95.00;23.20;;;14.60;63.70;;;;;;5102989;27;20570;-45
2023/01/27 07:54:56;;;;;;;67.97;20.10;;;14.70;63.40;;;;;;5086153;28;20633;-45
2023/01/27 07:57:25;;;;;;;82.73;19.63;;;14.80;63.00;;;;;;5106095;27;20669;-45
2023/01/27 07:59:56;;;;;;;62.13;17.90;;;14.90;62.60;;;;;;5105846;28;20207;-46
2023/01/27 08:02:27;;;;;;;53.53;16.87;;;15.00;62.20;;;;;;5100328;27;20243;-45
2023/01/27 08:04:56;;;;;;;49.13;15.17;;;15.10;62.10;;;;;;5101269;28;20198;-45
2023/01/27 08:07:29;;;;;;;47.33;14.30;;;15.20;61.80;;;;;;5101404;28;20199;-46
2023/01/27 08:10:00;;;;;;;50.50;15.13;;;15.30;61.90;;;;;;5106281;27;20204;-45
2023/01/27 08:12:33;;;;;;;55.73;14.23;;;15.60;61.10;;;;;;5103554;27;20192;-45
2023/01/27 08:15:08;;;;;;;39.60;12.27;;;15.90;60.30;;;;;;5102701;27;20629;-45
2023/01/27 08:17:40;;;;;;;33.80;11.27;;;16.30;59.40;;;;;;5108254;27;20199;-46
2023/01/27 08:20:12;;;;;;;32.33;10.33;;;16.70;58.70;;;;;;5107464;28;20200;-45
2023/01/27 08:22:44;;;;;;;34.63;10.20;;;17.00;57.80;;;;;;5106714;28;20799;-46
2023/01/27 08:25:16;;;;;;;30.30;10.00;;;17.40;57.10;;;;;;5089665;28;20481;-46
2023/01/27 08:27:50;;;;;;;29.37;9.37;;;17.60;56.60;;;;;;5111381;27;20595;-47
2023/01/27 08:30:21;;;;;;;25.13;7.87;;;17.90;56.60;;;;;;5087556;28;20210;-48
2023/01/27 08:32:53;;;;;;;24.63;7.47;;;18.20;55.20;;;;;;5106348;28;20222;-47
2023/01/27 08:35:26;;;;;;;18.67;6.87;;;18.40;54.60;;;;;;5107453;28;20188;-48
2023/01/27 08:37:54;;;;;;;20.00;6.37;;;18.60;54.10;;;;;;5099524;28;20239;-48
2023/01/27 08:40:23;;;;;;;16.93;6.10;;;18.90;53.70;;;;;;5100029;28;20234;-46
2023/01/27 08:42:56;;;;;;;16.67;6.13;;;19.10;53.30;;;;;;5089049;28;20200;-46
2023/01/27 08:45:27;;;;;;;15.43;5.20;;;19.30;52.90;;;;;;5082863;28;20188;-46
2023/01/27 08:47:55;;;;;;;11.67;4.73;;;19.50;52.40;;;;;;5087723;28;20188;-45
2023/01/27 08:50:25;;;;;;;11.13;4.43;;;19.70;52.00;;;;;;5097607;28;20787;-46
2023/01/27 08:52:57;;;;;;;15.87;4.63;;;19.90;51.70;;;;;;5085834;28;20208;-46
2023/01/27 08:55:31;;;;;;;10.40;4.23;;;20.10;51.30;;;;;;5103306;28;20188;-48
2023/01/27 08:58:02;;;;;;;10.07;4.37;;;20.30;50.90;;;;;;5084205;28;20188;-48
2023/01/27 09:00:36;;;;;;;13.03;4.83;;;20.50;50.60;;;;;;5104293;28;20229;-46
2023/01/27 09:03:04;;;;;;;12.03;3.83;;;20.60;50.20;;;;;;5101664;28;20228;-46
2023/01/27 09:05:34;;;;;;;7.93;3.33;;;20.70;49.80;;;;;;5099972;28;20194;-48
2023/01/27 09:08:04;;;;;;;9.60;3.40;;;20.90;49.70;;;;;;5088033;28;20281;-48
2023/01/27 09:10:40;;;;;;;8.77;2.80;;;21.00;49.60;;;;;;5103718;28;20506;-46
2023/01/27 09:13:09;;;;;;;10.57;2.90;;;21.10;49.30;;;;;;5088216;28;20249;-46
2023/01/27 09:15:39;;;;;;;6.90;2.80;;;21.20;49.10;;;;;;5107655;28;20269;-47
2023/01/27 09:18:10;;;;;;;10.57;3.50;;;21.30;49.00;;;;;;5107476;28;20204;-48
2023/01/27 09:20:46;;;;;;;5.70;2.60;;;21.40;48.90;;;;;;5092594;28;20187;-47
2023/01/27 09:23:16;;;;;;;4.17;2.50;;;21.50;48.70;;;;;;5109382;27;20269;-46
2023/01/27 09:25:49;;;;;;;6.93;2.47;;;21.60;48.50;;;;;;5115806;27;20196;-48
2023/01/27 09:28:18;;;;;;;7.37;2.40;;;21.70;48.30;;;;;;5103715;27;20250;-49
2023/01/27 09:30:59;;;;;;;8.40;2.40;;;21.80;48.10;;;;;;5109097;28;20191;-48
2023/01/27 09:33:31;;;;;;;3.77;2.00;;;21.90;48.00;;;;;;5108443;27;20654;-48
2023/01/27 09:36:10;;;;;;;5.60;1.80;;;22.00;47.90;;;;;;5110495;28;20192;-46
2023/01/27 09:38:51;;;;;;;3.03;1.80;;;22.00;47.90;;;;;;5105939;27;20219;-46
2023/01/27 09:41:36;;;;;;;4.67;1.90;;;22.20;47.90;;;;;;5091569;28;20188;-48
2023/01/27 09:44:36;;;;;;;3.33;1.77;;;22.20;47.70;;;;;;5103687;28;20195;-48
2023/01/27 09:47:27;;;;;;;3.77;1.60;;;22.30;47.40;;;;;;5109540;27;20193;-46
2023/01/27 09:50:11;;;;;;;2.63;1.60;;;22.40;47.40;;;;;;5105195;27;20495;-45
2023/01/27 09:53:04;;;;;;;6.67;1.80;;;22.40;47.30;;;;;;5082568;28;20750;-48
2023/01/27 09:56:06;;;;;;;2.77;1.70;;;22.50;47.20;;;;;;5112806;27;20184;-48
2023/01/27 09:59:04;;;;;;;3.20;1.20;;;22.50;47.40;;;;;;5099748;28;20184;-48
2023/01/27 10:01:49;;;;;;;5.17;1.23;;;22.50;47.40;;;;;;5108240;27;20188;-46
2023/01/27 10:04:48;;;;;;;1.90;1.20;;;22.50;47.60;;;;;;5102994;28;20209;-46
2023/01/27 10:07:39;;;;;;;3.43;1.50;;;22.60;47.40;;;;;;5058608;28;20212;-49
2023/01/27 10:10:45;;;;;;;2.90;1.27;;;22.60;47.30;;;;;;5114398;27;20419;-47
2023/01/27 10:13:49;;;;;;;2.23;1.20;;;22.70;47.30;;;;;;5084535;28;20215;-44
2023/01/27 10:16:59;;;;;;;2.00;1.00;;;22.80;46.90;;;;;;5102613;28;20881;-46
2023/01/27 10:20:22;;;;;;;1.63;0.90;;;22.60;46.80;;;;;;5020806;28;20239;-46
2023/01/27 10:23:22;;;;;;;2.17;1.30;;;22.30;47.80;;;;;;5038451;28;20205;-47
2023/01/27 10:26:27;;;;;;;1.87;1.20;;;21.90;48.30;;;;;;5101379;28;20569;-48
2023/01/27 10:29:09;;;;;;;3.53;1.20;;;21.90;48.50;;;;;;5105256;28;20224;-48
2023/01/27 10:32:09;;;;;;;2.10;1.00;;;22.00;48.40;;;;;;5090500;28;20192;-45
2023/01/27 10:34:42;;;;;;;1.87;1.00;;;22.20;48.10;;;;;;5083921;27;20201;-46
2023/01/27 10:38:00;;;;;;;1.37;1.00;;;22.30;48.00;;;;;;5090921;28;20192;-46
2023/01/27 10:40:57;;;;;;;1.90;0.87;;;22.40;47.80;;;;;;5039898;28;20205;-48
2023/01/27 10:43:53;;;;;;;3.87;1.17;;;22.50;47.60;;;;;;5073101;28;20219;-47
2023/01/27 10:47:00;;;;;;;1.10;0.90;;;22.70;47.60;;;;;;5100785;27;20192;-46
2023/01/27 10:49:39;;;;;;;1.13;0.90;;;22.80;47.50;;;;;;5088925;28;20200;-45
2023/01/27 10:52:26;;;;;;;1.23;0.83;;;22.90;47.20;;;;;;5105896;27;20755;-47
2023/01/27 10:55:13;;;;;;;1.47;0.80;;;23.00;47.80;;;;;;5084507;28;20224;-46
2023/01/27 10:58:10;;;;;;;2.20;0.90;;;23.00;47.10;;;;;;5085620;28;20196;-46
2023/01/27 11:00:52;;;;;;;2.07;0.90;;;23.00;47.20;;;;;;5108474;28;20520;-45
2023/01/27 11:04:23;;;;;;;1.07;0.80;;;23.10;47.30;;;;;;5087262;28;20201;-46
2023/01/27 11:06:55;;;;;;;1.00;0.90;;;23.10;47.20;;;;;;5072023;28;20204;-47
2023/01/27 11:10:05;;;;;;;3.07;1.00;;;23.10;47.30;;;;;;5108070;27;20235;-48
2023/01/27 11:12:40;;;;;;;1.20;0.80;;;23.20;47.10;;;;;;5103319;27;20392;-45
2023/01/27 11:15:22;;;;;;;2.20;0.80;;;23.20;47.20;;;;;;5106433;27;20308;-48
2023/01/27 11:18:25;;;;;;;2.00;0.70;;;23.20;47.40;;;;;;5104348;28;20716;-47
2023/01/27 11:21:03;;;;;;;0.90;0.70;;;23.10;47.30;;;;;;5093401;28;20220;-46
2023/01/27 11:23:41;;;;;;;1.33;0.77;;;23.20;47.40;;;;;;5088911;28;20211;-45
2023/01/27 11:26:15;;;;;;;0.73;0.73;;;23.20;47.30;;;;;;5107870;27;20207;-47
2023/01/27 11:29:04;;;;;;;1.37;0.80;;;23.20;47.40;;;;;;5097199;27;20243;-46
2023/01/27 11:31:57;;;;;;;6.13;1.47;;;23.20;46.90;;;;;;5107143;28;20256;-49
2023/01/27 11:34:49;;;;;;;1.00;0.90;;;22.90;47.10;;;;;;5107033;27;20192;-49
2023/01/27 11:37:46;;;;;;;1.73;1.00;;;22.60;47.60;;;;;;5107646;27;20192;-48
2023/01/27 11:40:37;;;;;;;4.93;1.43;;;22.40;48.00;;;;;;5087254;28;20196;-48
2023/01/27 11:43:04;;;;;;;2.57;1.10;;;22.10;48.40;;;;;;5090290;28;20703;-48
2023/01/27 11:45:36;;;;;;;1.37;1.07;;;21.90;48.40;;;;;;5105302;27;20537;-48
2023/01/27 11:48:11;;;;;;;1.43;1.13;;;21.80;48.70;;;;;;5106295;28;20593;-48
2023/01/27 11:50:53;;;;;;;4.37;1.30;;;21.60;48.70;;;;;;5105647;28;20267;-48
2023/01/27 11:53:35;;;;;;;4.57;1.40;;;21.50;49.20;;;;;;5108139;27;20200;-47
2023/01/27 11:56:15;;;;;;;1.33;1.00;;;21.40;49.30;;;;;;5105617;28;20196;-46
2023/01/27 11:59:10;;;;;;;2.40;1.13;;;21.20;49.80;;;;;;5105287;27;20201;-46
2023/01/27 12:01:46;;;;;;;1.53;0.93;;;21.10;50.00;;;;;;5086220;28;20192;-48
2023/01/27 12:04:45;;;;;;;4.87;1.30;;;21.00;50.20;;;;;;5082482;27;20204;-48
2023/01/27 12:07:53;;;;;;;1.03;0.70;;;21.00;50.70;;;;;;5110258;27;20222;-48
2023/01/27 12:10:32;;;;;;;3.57;1.00;;;21.20;50.80;;;;;;5077103;27;20208;-45
2023/01/27 12:13:20;;;;;;;2.13;0.70;;;21.40;50.60;;;;;;5109311;27;20184;-45
2023/01/27 12:16:04;;;;;;;0.93;0.80;;;21.60;50.50;;;;;;5087869;27;20713;-45
2023/01/27 12:18:46;;;;;;;1.23;0.80;;;21.80;50.20;;;;;;5101502;28;20257;-46
2023/01/27 12:21:14;;;;;;;1.10;0.60;;;21.80;50.20;;;;;;5090136;28;20323;-47
2023/01/27 12:23:53;;;;;;;1.00;0.60;;;21.90;50.20;;;;;;5107193;28;20196;-46
2023/01/27 12:26:37;;;;;;;0.90;0.77;;;22.00;50.00;;;;;;5086948;28;20204;-48
2023/01/27 12:29:36;;;;;;;2.90;0.80;;;22.10;49.90;;;;;;5104672;28;20236;-47
2023/01/27 12:32:17;;;;;;;1.43;0.60;;;22.20;49.90;;;;;;5093954;28;20207;-48
2023/01/27 12:34:55;;;;;;;2.27;0.70;;;22.30;49.90;;;;;;5072823;28;20204;-47
2023/01/27 12:37:29;;;;;;;0.70;0.60;;;22.30;49.80;;;;;;5108468;27;20661;-45
2023/01/27 12:40:15;;;;;;;3.73;1.00;;;22.40;49.60;;;;;;5085024;28;20218;-45
2023/01/27 12:43:08;;;;;;;1.57;0.70;;;22.50;49.50;;;;;;5088893;28;20202;-45
2023/01/27 12:45:37;;;;;;;1.60;0.80;;;22.60;49.50;;;;;;5091143;28;20196;-45
2023/01/27 12:48:17;;;;;;;0.80;0.67;;;22.60;49.20;;;;;;5089502;28;20650;-44
2023/01/27 12:50:55;;;;;;;0.93;0.80;;;22.70;49.10;;;;;;5103741;28;20236;-46
2023/01/27 12:53:26;;;;;;;1.07;0.80;;;22.80;49.10;;;;;;5075365;28;20200;-45
2023/01/27 12:56:19;;;;;;;1.27;0.80;;;22.80;49.10;;;;;;5108534;28;20200;-45
2023/01/27 12:58:59;;;;;;;2.47;0.83;;;22.80;49.10;;;;;;5103105;28;20580;-44
2023/01/27 13:01:37;;;;;;;1.20;0.90;;;22.60;49.10;;;;;;5096541;28;20222;-46
2023/01/27 13:04:20;;;;;;;1.13;1.07;;;22.50;49.30;;;;;;5084931;28;20219;-46
2023/01/27 13:07:05;;;;;;;3.73;0.70;;;22.30;50.00;;;;;;5089462;28;20196;-45
2023/01/27 13:10:02;;;;;;;0.90;0.90;;;22.10;50.20;;;;;;5104788;28;20240;-45
2023/01/27 13:12:53;;;;;;;0.93;0.90;;;22.00;50.20;;;;;;5086120;28;20359;-46
2023/01/27 13:15:33;;;;;;;1.43;1.27;;;21.80;50.20;;;;;;5085259;28;20205;-44
2023/01/27 13:18:20;;;;;;;1.73;0.80;;;21.70;50.70;;;;;;5103235;28;20195;-45
2023/01/27 13:20:56;;;;;;;1.37;1.10;;;21.60;50.70;;;;;;5091784;28;20188;-45
2023/01/27 13:23:37;;;;;;;1.57;1.20;;;21.60;50.70;;;;;;5081512;28;20222;-46
2023/01/27 13:26:36;;;;;;;1.63;1.13;;;21.50;51.00;;;;;;5107732;28;20261;-45
2023/01/27 13:29:18;;;;;;;0.97;0.80;;;21.40;51.00;;;;;;5087404;28;20225;-45
2023/01/27 13:32:20;;;;;;;1.40;0.93;;;21.30;51.10;;;;;;5084823;28;20193;-44
2023/01/27 13:35:19;;;;;;;0.90;0.90;;;21.20;51.20;;;;;;5087930;28;20201;-44
2023/01/27 13:38:31;;;;;;;2.67;1.00;;;21.20;51.50;;;;;;5084406;28;20193;-46
2023/01/27 13:41:14;;;;;;;1.70;0.90;;;21.10;51.90;;;;;;5050562;28;20244;-44
2023/01/27 13:44:09;;;;;;;1.77;1.00;;;21.00;52.10;;;;;;5091066;28;20200;-45
2023/01/27 13:46:40;;;;;;;1.00;0.90;;;21.00;51.90;;;;;;5075489;28;20213;-45
2023/01/27 13:49:41;;;;;;;1.00;0.90;;;20.90;51.10;;;;;;5069974;28;20189;-45
2023/01/27 13:52:11;;;;;;;1.00;0.93;;;20.80;51.30;;;;;;5073373;28;20550;-44
2023/01/27 13:54:47;;;;;;;0.80;0.80;;;20.70;51.20;;;;;;5084639;28;20189;-45
2023/01/27 13:57:55;;;;;;;1.80;0.80;;;20.60;51.20;;;;;;5084129;28;20193;-44
2023/01/27 14:00:48;;;;;;;1.13;0.97;;;20.60;51.00;;;;;;5082293;28;20185;-48
2023/01/27 14:03:41;;;;;;;1.10;1.00;;;20.40;51.00;;;;;;5079539;28;20216;-48
2023/01/27 14:06:30;;;;;;;1.20;1.10;;;20.30;50.70;;;;;;5087761;28;20646;-45